Flamengo — HPMX — position and weather

sailwx.info

Track history (hours):
 
Tides and Currents Weather Stations Pressure Air Temp Water Temp Dewpoint Dewpoint Depression Visibility Wind Speed Wind Dir Waves Ship Positions

Flamengo

Last reported at 2017-Nov-17 21:28 UTC. Time now 2017-Nov-18 08:56 UTC.
Position N 33°58' E 034°34'.

Length 119 m; draft 4.5 m.

Type: Tanker. MMSI: 355960000.

Date/timePositionNaut miles runAvg speedWind from/ knotsBaromVisibWave heightAir tempDewpointWater temp
2017-Nov-17 21:28N 33°58' E 034°34'715.1
2017-Nov-17 21:00N 33°51' E 034°31'815.0
2017-Nov-17 20:30N 33°44' E 034°28'714.8
2017-Nov-17 20:00N 33°37' E 034°25'714.9
2017-Nov-17 19:31N 33°30' E 034°23'714.8
2017-Nov-17 19:00N 33°23' E 034°19'714.6
2017-Nov-17 18:30N 33°16' E 034°16'714.5
2017-Nov-17 18:01N 33°09' E 034°14'714.4
2017-Nov-17 17:30N 33°02' E 034°11'714.5
2017-Nov-17 17:01N 32°56' E 034°09'714.5
2017-Nov-17 16:30N 32°49' E 034°06'714.5
2017-Nov-17 16:00N 32°42' E 034°03'714.3
2017-Nov-17 15:31N 32°35' E 034°00'714.4
2017-Nov-17 15:00N 32°28' E 033°57'714.3
2017-Nov-17 14:30N 32°22' E 033°55'714.6
2017-Nov-17 14:00N 32°14' E 033°52'714.1
2017-Nov-17 13:30N 32°08' E 033°51'815.6
2017-Nov-17 13:01N 32°04' E 033°59'815.2
2017-Nov-17 12:30N 32°01' E 034°07'  
Track history (hours):
 
Tides and Currents Weather Stations Pressure Air Temp Water Temp Dewpoint Dewpoint Depression Visibility Wind Speed Wind Dir Waves Ship Positions

Flamengo

Last reported at 2017-Nov-17 21:28 UTC. Time now 2017-Nov-18 08:56 UTC.
Position N 33°58' E 034°34'.

Length 119 m; draft 4.5 m.

Type: Tanker. MMSI: 355960000.

Date/timePositionNaut miles runAvg speedWind from/ knotsBaromVisibWave heightAir tempDewpointWater temp
2017-Nov-17 21:28N 33°58' E 034°34'715.1
2017-Nov-17 21:00N 33°51' E 034°31'815.0
2017-Nov-17 20:30N 33°44' E 034°28'714.8
2017-Nov-17 20:00N 33°37' E 034°25'714.9
2017-Nov-17 19:31N 33°30' E 034°23'714.8
2017-Nov-17 19:00N 33°23' E 034°19'714.6
2017-Nov-17 18:30N 33°16' E 034°16'714.5
2017-Nov-17 18:01N 33°09' E 034°14'714.4
2017-Nov-17 17:30N 33°02' E 034°11'714.5
2017-Nov-17 17:01N 32°56' E 034°09'714.5
2017-Nov-17 16:30N 32°49' E 034°06'714.5
2017-Nov-17 16:00N 32°42' E 034°03'714.3
2017-Nov-17 15:31N 32°35' E 034°00'714.4
2017-Nov-17 15:00N 32°28' E 033°57'714.3
2017-Nov-17 14:30N 32°22' E 033°55'714.6
2017-Nov-17 14:00N 32°14' E 033°52'714.1
2017-Nov-17 13:30N 32°08' E 033°51'815.6
2017-Nov-17 13:01N 32°04' E 033°59'815.2
2017-Nov-17 12:30N 32°01' E 034°07'  

Dump ship's entire track history